aviador You're here:

KMHT Decoded Metar

MANCHESTER in NH, USA
Report Time2018-01-18 10:53:00
UTC Time2018-01-18 11:47:21
Flight Rules vfr VFR
WindCalm
Visibility9999 m
Phenomena:N/A
Clouds:N/A
Expected CloudBase > 800 ft AGL from Temp-Dew spread
CeilingNone
Temp-8°C (ISA -22)
Dew Point-10°C (86% RH)
AAT-11.1°C
QNH1014 hPa
Density Alt-2,523 ft
Elevation266 ft
Report Wrong Elevation
Raw Report
METAR KMHT 181053Z 00000KT 10SM CLR M08/M10 A2995 RMK AO2 SLP161 T10781100=

Extra information for KMHT:More info

Metar Taf Metar & Taf Last 4 Metars F.Rules Stats Wind Profile Meteogram Temp Stats Airport Information Weather charts Add Link Nearby VenuesMetar ALERT Operation Metar Decoded Social comments

AIRNAV info for KMHT